PWSweather.com
Personal Weather Stations
Station Observations

CefaluIT

Lat: 38.0324, Lon: 14.02837

Elevation: 92

Station Type: LACROSSE WS 2350

http://www.meteocefalu.altervista.org

Latest ConditionsUpdated 8:10:10 AM GMT+01:01 Saturday, Jan 18, 2020
Currently Today's Max Today's Min Today's Average
Temperature 52.9°F11.6°C 54.3°F12.4°C 52.3°F11.3°C 53.0°F11.7°C
Dew Point 40.2°F4.6°C 43.1°F6.2°C 40.2°F4.6°C 42.4°F5.8°C
Winds 8.7 mph S14.0 kmh S 11.3 mph -18.2 kmh - - 3.6 mph 5.8 kmh
Wind Gusts 10.3 mph16.6 kmh 14.5 mph23.3 kmh - -
Humidity 62% 70% 62% 67%
Pressure 30.19 in1022.4 mb 30.21 in1023.0 mb 30.18 in1022.0 mb -
Hour Temp Dew Point Humidity Winds Wind Gusts Pressure Precip Precip Rate Daily Precip Total
08:10 AM 52.9°F11.6°C 40.2°F4.6°C 62% 8.7 mph S14.0 kmh S 10.3 mph16.6 kmh 30.19 in1022.4 mb - 0.00 in0.0 mm 0.00 in0.0 mm
08:00 AM 52.7°F11.5°C 40.5°F4.7°C 63% 9.1 mph SSW14.6 kmh SSW 8.0 mph12.9 kmh 30.19 in1022.4 mb - 0.00 in0.0 mm 0.00 in0.0 mm
07:50 AM 52.3°F11.3°C 40.9°F4.9°C 65% 8.9 mph SSW14.3 kmh SSW 8.9 mph14.3 kmh 30.19 in1022.4 mb - 0.00 in0.0 mm 0.00 in0.0 mm
07:40 AM 52.3°F11.3°C 41.3°F5.2°C 66% 6.4 mph SSW10.3 kmh SSW 6.9 mph11.1 kmh 30.19 in1022.4 mb - 0.00 in0.0 mm 0.00 in0.0 mm
07:30 AM 52.3°F11.3°C 41.7°F5.4°C 67% 6.4 mph SE10.3 kmh SE 3.8 mph6.1 kmh 30.18 in1022.0 mb - 0.00 in0.0 mm 0.00 in0.0 mm
07:20 AM 52.3°F11.3°C 42.1°F5.6°C 68% 9.8 mph S15.8 kmh S 9.8 mph15.8 kmh 30.18 in1022.0 mb - 0.00 in0.0 mm 0.00 in0.0 mm
07:10 AM 52.5°F11.4°C 42.3°F5.7°C 68% 11.3 mph S18.2 kmh S 14.5 mph23.3 kmh 30.18 in1022.0 mb - 0.00 in0.0 mm 0.00 in0.0 mm
07:00 AM 52.5°F11.4°C 42.3°F5.7°C 68% 9.4 mph SW15.1 kmh SW 9.2 mph14.8 kmh 30.19 in1022.4 mb - 0.00 in0.0 mm 0.00 in0.0 mm
06:50 AM 52.5°F11.4°C 42.3°F5.7°C 68% 6.5 mph S10.5 kmh S 6.5 mph10.5 kmh 30.19 in1022.4 mb - 0.00 in0.0 mm 0.00 in0.0 mm
06:40 AM 52.9°F11.6°C 42.6°F5.9°C 68% 6.6 mph SW10.6 kmh SW 6.9 mph11.1 kmh 30.19 in1022.4 mb - 0.00 in0.0 mm 0.00 in0.0 mm
06:30 AM 53.4°F11.9°C 43.1°F6.2°C 68% 8.4 mph S13.5 kmh S 8.9 mph14.3 kmh 30.19 in1022.4 mb - 0.00 in0.0 mm 0.00 in0.0 mm
06:20 AM 53.4°F11.9°C 43.1°F6.2°C 68% 9.6 mph SSW15.4 kmh SSW 9.6 mph15.4 kmh 30.19 in1022.4 mb - 0.00 in0.0 mm 0.00 in0.0 mm
06:10 AM 53.2°F11.8°C 42.6°F5.9°C 67% 10.5 mph SW16.9 kmh SW 10.5 mph16.9 kmh 30.19 in1022.4 mb - 0.00 in0.0 mm 0.00 in0.0 mm
06:00 AM 52.9°F11.6°C 42.2°F5.7°C 67% 4.6 mph SSW7.4 kmh SSW 4.5 mph7.2 kmh 30.19 in1022.4 mb - 0.00 in0.0 mm 0.00 in0.0 mm
05:50 AM 53.1°F11.7°C 42.4°F5.8°C 67% 3.4 mph SSW5.5 kmh SSW 3.4 mph5.5 kmh 30.19 in1022.4 mb - 0.00 in0.0 mm 0.00 in0.0 mm
05:40 AM 53.2°F11.8°C 42.6°F5.9°C 67% 5.0 mph S8.0 kmh S 5.4 mph8.7 kmh 30.19 in1022.4 mb - 0.00 in0.0 mm 0.00 in0.0 mm
05:30 AM 53.2°F11.8°C 42.6°F5.9°C 67% 2.8 mph SSW4.5 kmh SSW 2.5 mph4.0 kmh 30.19 in1022.4 mb - 0.00 in0.0 mm 0.00 in0.0 mm
05:20 AM 53.4°F11.9°C 43.1°F6.2°C 68% 2.5 mph S4.0 kmh S 2.5 mph4.0 kmh 30.19 in1022.4 mb - 0.00 in0.0 mm 0.00 in0.0 mm
05:10 AM 53.2°F11.8°C 42.9°F6.1°C 68% 6.2 mph SSW10.0 kmh SSW 8.3 mph13.4 kmh 30.19 in1022.4 mb - 0.00 in0.0 mm 0.00 in0.0 mm
05:00 AM 53.4°F11.9°C 43.1°F6.2°C 68% 2.3 mph SW3.7 kmh SW 1.6 mph2.6 kmh 30.19 in1022.4 mb - 0.00 in0.0 mm 0.00 in0.0 mm
04:50 AM 53.4°F11.9°C 43.1°F6.2°C 68% 3.8 mph S6.1 kmh S 3.8 mph6.1 kmh 30.19 in1022.4 mb - 0.00 in0.0 mm 0.00 in0.0 mm
04:40 AM 53.4°F11.9°C 43.1°F6.2°C 68% 3.4 mph S5.5 kmh S 3.6 mph5.8 kmh 30.19 in1022.4 mb - 0.00 in0.0 mm 0.00 in0.0 mm
04:30 AM 53.4°F11.9°C 43.1°F6.2°C 68% 3.1 mph SSW5.0 kmh SSW 3.1 mph5.0 kmh 30.19 in1022.4 mb - 0.00 in0.0 mm 0.00 in0.0 mm
04:20 AM 53.2°F11.8°C 42.9°F6.1°C 68% 2.7 mph SSW4.3 kmh SSW 2.7 mph4.3 kmh 30.19 in1022.4 mb - 0.00 in0.0 mm 0.00 in0.0 mm
04:10 AM 53.2°F11.8°C 42.6°F5.9°C 67% 0.2 mph S0.3 kmh S 0.9 mph1.4 kmh 30.19 in1022.4 mb - 0.00 in0.0 mm 0.00 in0.0 mm
04:00 AM 52.7°F11.5°C 42.0°F5.6°C 67% 1.7 mph S2.7 kmh S 1.8 mph2.9 kmh 30.19 in1022.4 mb - 0.00 in0.0 mm 0.00 in0.0 mm
03:50 AM 52.7°F11.5°C 42.0°F5.6°C 67% 0.1 mph ESE0.2 kmh ESE -- 30.20 in1022.7 mb - 0.00 in0.0 mm 0.00 in0.0 mm
03:40 AM 52.4°F11.3°C 41.8°F5.4°C 67% 1.4 mph SSE2.3 kmh SSE 1.6 mph2.6 kmh 30.20 in1022.7 mb - 0.00 in0.0 mm 0.00 in0.0 mm
03:30 AM 52.3°F11.3°C 41.3°F5.2°C 66% Calm Calm -- 30.20 in1022.7 mb - 0.00 in0.0 mm 0.00 in0.0 mm
03:20 AM 52.5°F11.4°C 41.1°F5.1°C 65% Calm Calm -- 30.20 in1022.7 mb - 0.00 in0.0 mm 0.00 in0.0 mm
03:10 AM 53.3°F11.8°C 41.4°F5.2°C 64% Calm Calm -- 30.20 in1022.7 mb - 0.00 in0.0 mm 0.00 in0.0 mm
02:50 AM 53.8°F12.1°C 41.9°F5.5°C 64% 1.1 mph SSW1.8 kmh SSW 1.1 mph1.8 kmh 30.20 in1022.7 mb - 0.00 in0.0 mm 0.00 in0.0 mm
02:40 AM 54.2°F12.3°C 42.3°F5.7°C 64% Calm Calm -- 30.20 in1022.7 mb - 0.00 in0.0 mm 0.00 in0.0 mm
02:30 AM 54.3°F12.4°C 42.4°F5.8°C 64% 0.6 mph WNW1.0 kmh WNW -- 30.20 in1022.7 mb - 0.00 in0.0 mm 0.00 in0.0 mm
02:20 AM 54.3°F12.4°C 42.8°F6.0°C 65% 1.3 mph 2.1 kmh 1.3 mph2.1 kmh 30.20 in1022.7 mb - 0.00 in0.0 mm 0.00 in0.0 mm
02:10 AM 53.2°F11.8°C 42.9°F6.1°C 68% 0.1 mph SSE0.2 kmh SSE 0.9 mph1.4 kmh 30.20 in1022.7 mb - 0.00 in0.0 mm 0.00 in0.0 mm
02:00 AM 52.9°F11.6°C 43.0°F6.1°C 69% 2.2 mph SSE3.5 kmh SSE 1.8 mph2.9 kmh 30.20 in1022.7 mb - 0.00 in0.0 mm 0.00 in0.0 mm
01:50 AM 52.5°F11.4°C 43.0°F6.1°C 70% 1.4 mph SSE2.3 kmh SSE 1.3 mph2.1 kmh 30.20 in1022.7 mb - 0.00 in0.0 mm 0.00 in0.0 mm
01:40 AM 52.5°F11.4°C 43.0°F6.1°C 70% 5.3 mph S8.5 kmh S 6.0 mph9.7 kmh 30.20 in1022.7 mb - 0.00 in0.0 mm 0.00 in0.0 mm
01:30 AM 52.5°F11.4°C 43.0°F6.1°C 70% 2.2 mph S3.5 kmh S 2.2 mph3.5 kmh 30.19 in1022.4 mb - 0.00 in0.0 mm 0.00 in0.0 mm
01:20 AM 52.5°F11.4°C 43.0°F6.1°C 70% 1.8 mph S2.9 kmh S 1.8 mph2.9 kmh 30.20 in1022.7 mb - 0.00 in0.0 mm 0.00 in0.0 mm
01:10 AM 52.3°F11.3°C 42.8°F6.0°C 70% 2.0 mph SSE3.2 kmh SSE 2.5 mph4.0 kmh 30.20 in1022.7 mb - 0.00 in0.0 mm 0.00 in0.0 mm
01:00 AM 52.3°F11.3°C 42.5°F5.8°C 69% 0.6 mph SE1.0 kmh SE -- 30.20 in1022.7 mb - 0.00 in0.0 mm 0.00 in0.0 mm
12:50 AM 52.5°F11.4°C 42.3°F5.7°C 68% 0.9 mph SSE1.4 kmh SSE 0.9 mph1.4 kmh 30.20 in1022.7 mb - 0.00 in0.0 mm 0.00 in0.0 mm
12:40 AM 53.0°F11.7°C 42.7°F5.9°C 68% Calm Calm -- 30.20 in1022.7 mb - 0.00 in0.0 mm 0.00 in0.0 mm
12:30 AM 53.2°F11.8°C 42.9°F6.1°C 68% Calm Calm -- 30.21 in1023.0 mb - 0.00 in0.0 mm 0.00 in0.0 mm
12:20 AM 53.2°F11.8°C 42.9°F6.1°C 68% Calm Calm -- 30.21 in1023.0 mb - 0.00 in0.0 mm 0.00 in0.0 mm
12:10 AM 53.1°F11.7°C 42.9°F6.1°C 68% 0.1 mph S0.2 kmh S 1.1 mph1.8 kmh 30.21 in1023.0 mb - 0.00 in0.0 mm 0.00 in0.0 mm
12:00 AM 53.2°F11.8°C 42.9°F6.1°C 68% 0.7 mph S1.1 kmh S -- 30.21 in1023.0 mb - 0.00 in0.0 mm 0.00 in0.0 mm